Es ist keine erhöhte Aufmerksamkeit aufgrund des Wetters notwendig.    Es gibt keine Warnungen.
Webcam Vorhersage DWD Regenradar Wetterlage NRW Blitze Wind GFS-Modell
webcam


Kleve - Düffelward SSO more information Kleve - Düffelward SSO


Goch more information Goch


Weitere Templates dieser Seite und andere Webseiten:

Meteotemplate

Awekas - Template

weather34 - Template

Wetter im Erzgebirge


te
World Weather Websites
Bo-Rox Wetter Topsites List
 

METAR-Meldungen aus der Umgebung

   
EDLV - Goch
Aktualisierung: 19-09-2019 04:50
Klar  
Klar  
   Wind: variiert 1.9 km/h
Wind: variiert 1.9 km/h
Temperatur: 8°C
Taupunkt: 7°C
Luftfeuchte: 93%
Luftdruck: 1029 hPa
Sichtbarkeit: More than 10 km
Bewölkung: Klar
EDLV 190250Z VRB01KT CAVOK 08/07 Q1029
EDLV - Emmerich
Aktualisierung: 19-09-2019 04:50
Klar  
Klar  
   Wind: variiert 1.9 km/h
Wind: variiert 1.9 km/h
Temperatur: 8°C
Taupunkt: 7°C
Luftfeuchte: 93%
Luftdruck: 1029 hPa
Sichtbarkeit: More than 10 km
Bewölkung: Klar
EDLV 190250Z VRB01KT CAVOK 08/07 Q1029
EHDL - Nijmegen
Aktualisierung: 19-09-2019 04:55
Bewölkt  
Bewölkt  
   Wind: variiert 1.9 km/h
Wind: variiert 1.9 km/h
Temperatur: 7°C
Taupunkt: 7°C
Luftfeuchte: 100%
Luftdruck: 1029 hPa
Bewölkt: Bewölkt
Sichtbarkeit: More than 10 km
Bewölkung: leicht bewölkt 3500 ft,
Stark bewölkt 3900 ft,
Bewölkt 4500 ft
EHDL 190255Z AUTO VRB01KT 9999 FEW035 BKN039 OVC045 07/07 Q1029 BLU
EHDL - Arnhem
Aktualisierung: 19-09-2019 04:55
Bewölkt  
Bewölkt  
   Wind: variiert 1.9 km/h
Wind: variiert 1.9 km/h
Temperatur: 7°C
Taupunkt: 7°C
Luftfeuchte: 100%
Luftdruck: 1029 hPa
Bewölkt: Bewölkt
Sichtbarkeit: More than 10 km
Bewölkung: leicht bewölkt 3500 ft,
Stark bewölkt 3900 ft,
Bewölkt 4500 ft
EHDL 190255Z AUTO VRB01KT 9999 FEW035 BKN039 OVC045 07/07 Q1029 BLU
EDLV - Kalkar
Aktualisierung: 19-09-2019 04:50
Klar  
Klar  
   Wind: variiert 1.9 km/h
Wind: variiert 1.9 km/h
Temperatur: 8°C
Taupunkt: 7°C
Luftfeuchte: 93%
Luftdruck: 1029 hPa
Sichtbarkeit: More than 10 km
Bewölkung: Klar
EDLV 190250Z VRB01KT CAVOK 08/07 Q1029
 

Script entwickelt von  Saratoga-weather.org Angepasst für das Template von  Weerstation Leuven

Sie finden Wetter-Infos dieser Station auch auf:

UK Metoffice

European Weather Network

WeatherCloud

Weather Underground

Germany Weather Network

AWEKAS

Neuwetter

Wettersektor

Von uns verwendete Ausrüstung:

Wetterstation
Davis Vantage Pro2

Wetterprogramm
Meteobridge

WetterComputer
Computer

Davis Vantage Pro2

Meteobridge

Computer